PAGK

Gulkana Airport

Airport
ICAO code
PAGK
IATA Code
GKN
Summary
ICAO Region
NAM
ICAO Territory
Location

, Alaska

Serving
Gulkana
Elevation
1586 ft
Coordinates
62° 9' 18" N , 145° 27' 24" W
Metar
PAGK 180653Z AUTO 31003KT 10SM BKN100 17/08 A2995 RMK AO2 SLP135 T01670078 TSNO $

Runways

Designator Length Width Surface Rops
15/33 1524 30 ASPH-G No/No

Airport map

Aerial View

SKYbrary Partners:

Safety knowledge contributed by: